Погода Болна неделю

Майо-Кеби, Чад

03 - 09 декабря
  • 03декабря
    Сегодня
    +21°
    +39°
    Ясно и безоблачно
    ВремяПогодаТемператураВлажностьДавлениеВетер, м/сВероятность осадков
    01:00Облачно с прояснениями+22°C25 %731 мм2.7 м/с0 %
    04:00Облачно с прояснениями+20°C29 %730 мм2.8 м/с0 %
    07:00Ясно и безоблачно+23°C27 %731 мм4.1 м/с0 %
    10:00Ясно и безоблачно+32°C19 %732 мм4.3 м/с0 %
    13:00Ясно и безоблачно+38°C15 %730 мм5.1 м/с0 %
    16:00Ясно и безоблачно+37°C15 %729 мм4.0 м/с0 %
    19:00Ясно и безоблачно+27°C27 %730 мм2.6 м/с0 %
    22:00Ясно и безоблачно+24°C26 %731 мм2.5 м/с0 %
  • 04декабря
    Воскресенье
    +19°
    +39°
    Ясно и безоблачно
    ВремяПогодаТемператураВлажностьДавлениеВетер, м/сВероятность осадков
    01:00Ясно и безоблачно+21°C29 %731 мм2.5 м/с0 %
    04:00Ясно и безоблачно+21°C25 %731 мм3.6 м/с0 %
    07:00Ясно и безоблачно+24°C23 %732 мм5.1 м/с0 %
    10:00Ясно и безоблачно+32°C16 %733 мм5.4 м/с0 %
    13:00Ясно и безоблачно+37°C13 %732 мм5.8 м/с0 %
    16:00Ясно и безоблачно+37°C13 %731 мм3.2 м/с0 %
    19:00Ясно и безоблачно+26°C19 %731 мм2.5 м/с0 %
    22:00Ясно и безоблачно+25°C15 %732 мм4.7 м/с0 %
  • 05декабря
    Понедельник
    +18°
    +37°
    Небольшая облачность
    ВремяПогодаТемператураВлажностьДавлениеВетер, м/сВероятность осадков
    01:00Ясно и безоблачно+22°C13 %732 мм4.2 м/с0 %
    04:00Ясно и безоблачно+20°C15 %732 мм3.7 м/с0 %
    07:00Ясно и безоблачно+20°C18 %733 мм3.8 м/с0 %
    10:00Ясно и безоблачно+29°C14 %735 мм3.7 м/с0 %
    13:00Небольшая облачность+35°C12 %733 мм3.7 м/с0 %
    16:00Ясно и безоблачно+35°C12 %732 мм3.1 м/с0 %
    19:00Ясно и безоблачно+25°C17 %732 мм2.6 м/с0 %
    22:00Ясно и безоблачно+23°C16 %733 мм4.0 м/с0 %
  • 06декабря
    Вторник
    +17°
    +37°
    Практически безоблачно
    ВремяПогодаТемператураВлажностьДавлениеВетер, м/сВероятность осадков
    01:00Ясно и безоблачно+21°C19 %733 мм3.4 м/с0 %
    04:00Ясно и безоблачно+19°C21 %732 мм2.9 м/с0 %
    07:00Практически безоблачно+19°C22 %734 мм3.1 м/с0 %
    10:00Небольшая облачность+28°C16 %734 мм2.9 м/с0 %
    13:00Практически безоблачно+35°C15 %732 мм2.6 м/с0 %
    16:00Ясно и безоблачно+35°C14 %730 мм2.6 м/с0 %
    19:00Практически безоблачно+26°C21 %731 мм2.4 м/с0 %
    22:00Небольшая облачность+23°C19 %732 мм3.5 м/с0 %
Мы используем cookies
Соглашаюсь